sensor_id;sensor_type;location;lat;lon;timestamp;noise_LAeq;noise_LA_min;noise_LA_max;noise_LA01;noise_LA95
67326;Laerm;58161;51.436;5.976;2022-08-04T00:00:09;47.00;46.12;47.81;;
67326;Laerm;58161;51.436;5.976;2022-08-04T00:00:20;46.96;46.00;47.76;;
67326;Laerm;58161;51.436;5.976;2022-08-04T00:00:30;46.98;46.02;47.83;;
67326;Laerm;58161;51.436;5.976;2022-08-04T00:00:48;46.99;45.92;47.93;;
67326;Laerm;58161;51.436;5.976;2022-08-04T00:01:05;46.98;46.16;47.77;;
67326;Laerm;58161;51.436;5.976;2022-08-04T00:01:27;46.98;46.16;48.07;;
67326;Laerm;58161;51.436;5.976;2022-08-04T00:01:45;46.98;46.14;47.96;;
67326;Laerm;58161;51.436;5.976;2022-08-04T00:02:18;46.99;46.03;48.86;;
67326;Laerm;58161;51.436;5.976;2022-08-04T00:02:51;46.97;46.16;47.93;;
67326;Laerm;58161;51.436;5.976;2022-08-04T00:03:18;46.99;46.06;47.86;;
67326;Laerm;58161;51.436;5.976;2022-08-04T00:03:51;46.99;46.00;47.85;;
67326;Laerm;58161;51.436;5.976;2022-08-04T00:04:11;46.95;45.92;47.87;;
67326;Laerm;58161;51.436;5.976;2022-08-04T00:05:04;47.00;45.98;48.04;;
67326;Laerm;58161;51.436;5.976;2022-08-04T00:06:02;46.97;45.93;47.81;;
67326;Laerm;58161;51.436;5.976;2022-08-04T00:06:02;47.00;46.04;49.56;;
67326;Laerm;58161;51.436;5.976;2022-08-04T00:06:16;46.97;45.88;48.08;;
67326;Laerm;58161;51.436;5.976;2022-08-04T00:06:33;46.99;46.17;47.91;;
67326;Laerm;58161;51.436;5.976;2022-08-04T00:06:56;46.98;46.13;48.67;;
67326;Laerm;58161;51.436;5.976;2022-08-04T00:07:44;46.98;46.07;47.80;;
67326;Laerm;58161;51.436;5.976;2022-08-04T00:08:56;47.00;45.86;49.25;;
67326;Laerm;58161;51.436;5.976;2022-08-04T00:09:15;46.99;46.07;48.35;;
67326;Laerm;58161;51.436;5.976;2022-08-04T00:09:38;47.03;46.18;48.01;;
67326;Laerm;58161;51.436;5.976;2022-08-04T00:09:51;46.99;46.00;47.75;;
67326;Laerm;58161;51.436;5.976;2022-08-04T00:10:03;47.02;46.24;47.93;;
67326;Laerm;58161;51.436;5.976;2022-08-04T00:10:15;47.00;46.06;47.95;;
67326;Laerm;58161;51.436;5.976;2022-08-04T00:10:26;46.98;46.11;47.89;;
67326;Laerm;58161;51.436;5.976;2022-08-04T00:10:38;46.98;46.14;47.88;;
67326;Laerm;58161;51.436;5.976;2022-08-04T00:10:49;46.98;46.15;47.70;;
67326;Laerm;58161;51.436;5.976;2022-08-04T00:11:04;46.98;45.85;47.81;;
67326;Laerm;58161;51.436;5.976;2022-08-04T00:11:20;47.03;46.06;48.08;;
67326;Laerm;58161;51.436;5.976;2022-08-04T00:11:31;46.99;46.05;47.97;;
67326;Laerm;58161;51.436;5.976;2022-08-04T00:11:44;46.99;45.94;48.29;;
67326;Laerm;58161;51.436;5.976;2022-08-04T00:11:54;46.95;46.04;47.88;;
67326;Laerm;58161;51.436;5.976;2022-08-04T00:12:06;47.01;46.15;50.51;;
67326;Laerm;58161;51.436;5.976;2022-08-04T00:12:20;46.99;45.83;47.87;;
67326;Laerm;58161;51.436;5.976;2022-08-04T00:12:32;46.99;46.04;48.19;;
67326;Laerm;58161;51.436;5.976;2022-08-04T00:12:43;46.97;45.73;47.85;;
67326;Laerm;58161;51.436;5.976;2022-08-04T00:12:56;46.98;45.96;47.87;;
67326;Laerm;58161;51.436;5.976;2022-08-04T00:13:08;46.97;45.93;48.22;;
67326;Laerm;58161;51.436;5.976;2022-08-04T00:13:23;46.99;46.24;48.03;;
67326;Laerm;58161;51.436;5.976;2022-08-04T00:13:36;46.98;46.09;47.98;;
67326;Laerm;58161;51.436;5.976;2022-08-04T00:13:53;46.99;45.88;47.82;;
67326;Laerm;58161;51.436;5.976;2022-08-04T00:14:09;47.07;46.10;48.55;;
67326;Laerm;58161;51.436;5.976;2022-08-04T00:14:22;46.97;45.88;47.95;;
67326;Laerm;58161;51.436;5.976;2022-08-04T00:14:34;47.00;45.84;47.77;;
67326;Laerm;58161;51.436;5.976;2022-08-04T00:14:49;47.01;46.09;47.81;;
67326;Laerm;58161;51.436;5.976;2022-08-04T00:15:02;47.01;46.17;47.89;;
67326;Laerm;58161;51.436;5.976;2022-08-04T00:15:13;46.93;46.15;47.69;;
67326;Laerm;58161;51.436;5.976;2022-08-04T00:15:24;47.00;46.21;47.96;;
67326;Laerm;58161;51.436;5.976;2022-08-04T00:15:35;46.97;45.92;47.92;;
67326;Laerm;58161;51.436;5.976;2022-08-04T00:15:46;46.99;46.02;47.94;;
67326;Laerm;58161;51.436;5.976;2022-08-04T00:16:04;46.98;46.01;47.90;;
67326;Laerm;58161;51.436;5.976;2022-08-04T00:16:15;46.98;46.08;47.97;;
67326;Laerm;58161;51.436;5.976;2022-08-04T00:16:28;46.94;45.76;47.92;;
67326;Laerm;58161;51.436;5.976;2022-08-04T00:16:40;46.92;46.09;47.77;;
67326;Laerm;58161;51.436;5.976;2022-08-04T00:16:50;46.96;45.79;47.72;;
67326;Laerm;58161;51.436;5.976;2022-08-04T00:17:04;46.97;45.84;47.99;;
67326;Laerm;58161;51.436;5.976;2022-08-04T00:17:19;47.00;46.13;47.86;;
67326;Laerm;58161;51.436;5.976;2022-08-04T00:17:31;47.04;46.02;47.93;;
67326;Laerm;58161;51.436;5.976;2022-08-04T00:17:58;47.05;45.98;47.83;;
67326;Laerm;58161;51.436;5.976;2022-08-04T00:18:09;47.01;46.11;47.94;;
67326;Laerm;58161;51.436;5.976;2022-08-04T00:18:28;47.07;46.07;48.81;;
67326;Laerm;58161;51.436;5.976;2022-08-04T00:18:48;47.01;46.26;47.84;;
67326;Laerm;58161;51.436;5.976;2022-08-04T00:19:03;47.03;46.07;49.11;;
67326;Laerm;58161;51.436;5.976;2022-08-04T00:19:25;47.02;46.11;48.10;;
67326;Laerm;58161;51.436;5.976;2022-08-04T00:19:46;47.04;46.05;48.99;;
67326;Laerm;58161;51.436;5.976;2022-08-04T00:20:00;47.03;45.90;48.01;;
67326;Laerm;58161;51.436;5.976;2022-08-04T00:20:11;47.03;46.15;47.99;;
67326;Laerm;58161;51.436;5.976;2022-08-04T00:20:28;47.04;46.25;47.80;;
67326;Laerm;58161;51.436;5.976;2022-08-04T00:20:39;47.03;45.88;47.78;;
67326;Laerm;58161;51.436;5.976;2022-08-04T00:20:51;46.99;46.16;47.95;;
67326;Laerm;58161;51.436;5.976;2022-08-04T00:21:04;47.03;45.91;47.83;;
67326;Laerm;58161;51.436;5.976;2022-08-04T00:21:15;47.05;46.20;47.90;;
67326;Laerm;58161;51.436;5.976;2022-08-04T00:21:25;47.08;46.23;48.01;;
67326;Laerm;58161;51.436;5.976;2022-08-04T00:21:37;47.10;46.02;47.90;;
67326;Laerm;58161;51.436;5.976;2022-08-04T00:21:54;47.07;46.13;48.68;;
67326;Laerm;58161;51.436;5.976;2022-08-04T00:22:05;47.06;46.33;48.05;;
67326;Laerm;58161;51.436;5.976;2022-08-04T00:22:18;47.08;46.32;48.69;;
67326;Laerm;58161;51.436;5.976;2022-08-04T00:22:30;47.12;46.11;48.84;;
67326;Laerm;58161;51.436;5.976;2022-08-04T00:22:44;47.05;45.89;48.54;;
67326;Laerm;58161;51.436;5.976;2022-08-04T00:22:54;47.08;46.13;48.21;;
67326;Laerm;58161;51.436;5.976;2022-08-04T00:23:06;47.10;46.04;48.67;;
67326;Laerm;58161;51.436;5.976;2022-08-04T00:23:17;47.11;46.18;47.90;;
67326;Laerm;58161;51.436;5.976;2022-08-04T00:23:27;47.10;46.17;47.96;;
67326;Laerm;58161;51.436;5.976;2022-08-04T00:23:39;47.05;46.21;48.17;;
67326;Laerm;58161;51.436;5.976;2022-08-04T00:23:53;47.03;46.15;47.94;;
67326;Laerm;58161;51.436;5.976;2022-08-04T00:24:04;47.01;45.93;47.99;;
67326;Laerm;58161;51.436;5.976;2022-08-04T00:24:15;47.05;46.21;47.89;;
67326;Laerm;58161;51.436;5.976;2022-08-04T00:24:26;47.05;46.16;48.10;;
67326;Laerm;58161;51.436;5.976;2022-08-04T00:24:38;47.09;46.07;47.95;;
67326;Laerm;58161;51.436;5.976;2022-08-04T00:24:49;47.09;46.15;48.00;;
67326;Laerm;58161;51.436;5.976;2022-08-04T00:25:01;47.07;46.12;48.16;;
67326;Laerm;58161;51.436;5.976;2022-08-04T00:25:13;47.01;45.84;47.90;;
67326;Laerm;58161;51.436;5.976;2022-08-04T00:25:23;47.05;46.12;48.18;;
67326;Laerm;58161;51.436;5.976;2022-08-04T00:25:37;47.44;46.44;50.25;;
67326;Laerm;58161;51.436;5.976;2022-08-04T00:25:49;47.46;46.40;50.54;;
67326;Laerm;58161;51.436;5.976;2022-08-04T00:26:00;47.24;46.22;48.30;;
67326;Laerm;58161;51.436;5.976;2022-08-04T00:26:10;47.28;46.33;48.89;;
67326;Laerm;58161;51.436;5.976;2022-08-04T00:26:21;47.33;46.20;49.28;;
67326;Laerm;58161;51.436;5.976;2022-08-04T00:26:32;47.38;46.04;48.47;;
67326;Laerm;58161;51.436;5.976;2022-08-04T00:26:42;47.40;46.32;49.12;;
67326;Laerm;58161;51.436;5.976;2022-08-04T00:26:53;46.99;46.04;48.04;;
67326;Laerm;58161;51.436;5.976;2022-08-04T00:27:03;47.01;46.22;47.90;;
67326;Laerm;58161;51.436;5.976;2022-08-04T00:27:14;46.98;46.16;49.00;;
67326;Laerm;58161;51.436;5.976;2022-08-04T00:27:24;46.96;46.02;47.83;;
67326;Laerm;58161;51.436;5.976;2022-08-04T00:27:37;46.97;45.77;47.94;;
67326;Laerm;58161;51.436;5.976;2022-08-04T00:27:47;46.98;46.10;48.12;;
67326;Laerm;58161;51.436;5.976;2022-08-04T00:27:59;47.01;46.05;48.55;;
67326;Laerm;58161;51.436;5.976;2022-08-04T00:28:09;46.98;46.01;47.87;;
67326;Laerm;58161;51.436;5.976;2022-08-04T00:28:21;46.98;46.01;47.90;;
67326;Laerm;58161;51.436;5.976;2022-08-04T00:28:31;46.96;46.06;47.88;;
67326;Laerm;58161;51.436;5.976;2022-08-04T00:28:41;46.99;46.21;47.87;;
67326;Laerm;58161;51.436;5.976;2022-08-04T00:28:52;46.97;46.16;47.86;;
67326;Laerm;58161;51.436;5.976;2022-08-04T00:29:04;46.98;45.97;47.78;;
67326;Laerm;58161;51.436;5.976;2022-08-04T00:29:14;46.99;46.08;47.83;;
67326;Laerm;58161;51.436;5.976;2022-08-04T00:29:26;46.94;45.88;47.81;;
67326;Laerm;58161;51.436;5.976;2022-08-04T00:29:37;46.96;46.00;48.18;;
67326;Laerm;58161;51.436;5.976;2022-08-04T00:29:47;46.98;45.77;48.73;;
67326;Laerm;58161;51.436;5.976;2022-08-04T00:29:58;46.97;46.18;47.84;;
67326;Laerm;58161;51.436;5.976;2022-08-04T00:30:08;46.95;46.19;47.98;;
67326;Laerm;58161;51.436;5.976;2022-08-04T00:30:19;46.97;45.91;47.96;;
67326;Laerm;58161;51.436;5.976;2022-08-04T00:30:29;46.96;45.96;48.25;;
67326;Laerm;58161;51.436;5.976;2022-08-04T00:30:40;46.97;46.06;47.81;;
67326;Laerm;58161;51.436;5.976;2022-08-04T00:30:51;46.95;46.10;47.70;;
67326;Laerm;58161;51.436;5.976;2022-08-04T00:31:01;46.96;46.08;47.71;;
67326;Laerm;58161;51.436;5.976;2022-08-04T00:31:13;46.98;45.94;47.75;;
67326;Laerm;58161;51.436;5.976;2022-08-04T00:31:23;46.96;46.14;47.89;;
67326;Laerm;58161;51.436;5.976;2022-08-04T00:31:35;46.97;45.88;47.69;;
67326;Laerm;58161;51.436;5.976;2022-08-04T00:31:46;46.99;46.14;48.70;;
67326;Laerm;58161;51.436;5.976;2022-08-04T00:31:56;46.97;46.03;47.84;;
67326;Laerm;58161;51.436;5.976;2022-08-04T00:32:07;46.95;46.07;47.71;;
67326;Laerm;58161;51.436;5.976;2022-08-04T00:32:18;46.98;46.12;47.86;;
67326;Laerm;58161;51.436;5.976;2022-08-04T00:32:28;46.97;45.97;48.37;;
67326;Laerm;58161;51.436;5.976;2022-08-04T00:32:40;46.99;46.17;47.78;;
67326;Laerm;58161;51.436;5.976;2022-08-04T00:32:51;46.98;46.02;49.14;;
67326;Laerm;58161;51.436;5.976;2022-08-04T00:33:01;46.95;45.82;47.88;;
67326;Laerm;58161;51.436;5.976;2022-08-04T00:33:12;46.97;45.95;47.79;;
67326;Laerm;58161;51.436;5.976;2022-08-04T00:33:27;46.98;46.26;47.77;;
67326;Laerm;58161;51.436;5.976;2022-08-04T00:33:38;46.98;46.01;47.74;;
67326;Laerm;58161;51.436;5.976;2022-08-04T00:33:48;46.97;46.15;47.76;;
67326;Laerm;58161;51.436;5.976;2022-08-04T00:33:59;46.97;45.92;47.91;;
67326;Laerm;58161;51.436;5.976;2022-08-04T00:34:10;47.05;46.20;47.94;;
67326;Laerm;58161;51.436;5.976;2022-08-04T00:34:25;46.96;46.05;47.86;;
67326;Laerm;58161;51.436;5.976;2022-08-04T00:34:35;46.97;46.21;47.93;;
67326;Laerm;58161;51.436;5.976;2022-08-04T00:34:46;46.98;46.02;47.85;;
67326;Laerm;58161;51.436;5.976;2022-08-04T00:34:57;46.95;46.15;47.73;;
67326;Laerm;58161;51.436;5.976;2022-08-04T00:35:08;46.97;46.15;47.88;;
67326;Laerm;58161;51.436;5.976;2022-08-04T00:35:19;46.98;46.04;47.85;;
67326;Laerm;58161;51.436;5.976;2022-08-04T00:35:29;46.99;46.10;47.98;;
67326;Laerm;58161;51.436;5.976;2022-08-04T00:35:40;47.01;46.01;48.03;;
67326;Laerm;58161;51.436;5.976;2022-08-04T00:35:50;46.96;46.06;47.99;;
67326;Laerm;58161;51.436;5.976;2022-08-04T00:36:00;46.99;45.91;47.94;;
67326;Laerm;58161;51.436;5.976;2022-08-04T00:36:11;46.95;45.84;47.91;;
67326;Laerm;58161;51.436;5.976;2022-08-04T00:36:22;46.94;46.02;47.66;;
67326;Laerm;58161;51.436;5.976;2022-08-04T00:36:33;46.93;45.95;47.68;;
67326;Laerm;58161;51.436;5.976;2022-08-04T00:36:43;46.94;45.87;47.96;;
67326;Laerm;58161;51.436;5.976;2022-08-04T00:36:54;46.95;46.15;47.83;;
67326;Laerm;58161;51.436;5.976;2022-08-04T00:37:05;46.92;46.07;47.93;;
67326;Laerm;58161;51.436;5.976;2022-08-04T00:37:15;46.94;45.99;47.71;;
67326;Laerm;58161;51.436;5.976;2022-08-04T00:37:26;46.94;45.95;47.79;;
67326;Laerm;58161;51.436;5.976;2022-08-04T00:37:36;46.93;46.00;47.85;;
67326;Laerm;58161;51.436;5.976;2022-08-04T00:37:47;46.93;45.89;48.40;;
67326;Laerm;58161;51.436;5.976;2022-08-04T00:37:58;46.97;46.02;48.59;;
67326;Laerm;58161;51.436;5.976;2022-08-04T00:38:09;46.91;45.99;47.81;;
67326;Laerm;58161;51.436;5.976;2022-08-04T00:38:19;46.94;45.92;47.74;;
67326;Laerm;58161;51.436;5.976;2022-08-04T00:38:30;46.98;46.17;47.90;;
67326;Laerm;58161;51.436;5.976;2022-08-04T00:38:41;46.94;45.64;48.17;;
67326;Laerm;58161;51.436;5.976;2022-08-04T00:38:52;46.95;45.92;47.87;;
67326;Laerm;58161;51.436;5.976;2022-08-04T00:39:03;46.93;45.88;47.79;;
67326;Laerm;58161;51.436;5.976;2022-08-04T00:39:14;46.91;45.91;48.03;;
67326;Laerm;58161;51.436;5.976;2022-08-04T00:39:25;46.95;46.09;47.83;;
67326;Laerm;58161;51.436;5.976;2022-08-04T00:39:36;46.92;46.00;47.82;;
67326;Laerm;58161;51.436;5.976;2022-08-04T00:39:47;46.95;45.99;48.12;;
67326;Laerm;58161;51.436;5.976;2022-08-04T00:39:58;46.95;45.81;47.77;;
67326;Laerm;58161;51.436;5.976;2022-08-04T00:40:31;46.95;46.10;48.05;;
67326;Laerm;58161;51.436;5.976;2022-08-04T00:41:21;46.98;45.97;48.60;;
67326;Laerm;58161;51.436;5.976;2022-08-04T00:41:42;46.99;45.97;48.08;;
67326;Laerm;58161;51.436;5.976;2022-08-04T00:42:05;46.98;45.90;47.94;;
67326;Laerm;58161;51.436;5.976;2022-08-04T00:42:33;46.98;45.98;47.83;;
67326;Laerm;58161;51.436;5.976;2022-08-04T00:42:47;46.97;45.91;47.84;;
67326;Laerm;58161;51.436;5.976;2022-08-04T00:43:16;46.98;46.12;47.86;;
67326;Laerm;58161;51.436;5.976;2022-08-04T00:43:32;46.96;45.84;47.79;;
67326;Laerm;58161;51.436;5.976;2022-08-04T00:43:49;46.97;45.78;47.87;;
67326;Laerm;58161;51.436;5.976;2022-08-04T00:47:03;47.00;46.09;47.88;;
67326;Laerm;58161;51.436;5.976;2022-08-04T00:47:24;46.98;46.03;48.18;;
67326;Laerm;58161;51.436;5.976;2022-08-04T00:48:43;46.99;46.04;47.94;;
67326;Laerm;58161;51.436;5.976;2022-08-04T00:49:32;46.98;46.04;48.00;;
67326;Laerm;58161;51.436;5.976;2022-08-04T00:52:01;46.97;45.96;47.91;;
67326;Laerm;58161;51.436;5.976;2022-08-04T00:52:52;47.00;46.04;47.88;;
67326;Laerm;58161;51.436;5.976;2022-08-04T00:53:07;46.98;45.99;47.97;;
67326;Laerm;58161;51.436;5.976;2022-08-04T00:53:23;46.96;45.75;48.02;;
67326;Laerm;58161;51.436;5.976;2022-08-04T00:54:41;46.98;46.07;49.05;;
67326;Laerm;58161;51.436;5.976;2022-08-04T00:55:43;46.96;45.90;48.93;;
67326;Laerm;58161;51.436;5.976;2022-08-04T00:56:04;46.94;45.97;47.87;;
67326;Laerm;58161;51.436;5.976;2022-08-04T00:56:21;46.97;46.08;48.52;;
67326;Laerm;58161;51.436;5.976;2022-08-04T00:56:43;47.00;45.97;48.10;;
67326;Laerm;58161;51.436;5.976;2022-08-04T00:57:08;46.99;46.01;48.47;;
67326;Laerm;58161;51.436;5.976;2022-08-04T00:58:28;47.00;46.10;48.96;;
67326;Laerm;58161;51.436;5.976;2022-08-04T00:58:42;46.99;45.99;49.01;;
67326;Laerm;58161;51.436;5.976;2022-08-04T00:59:35;46.98;46.05;48.40;;
67326;Laerm;58161;51.436;5.976;2022-08-04T01:00:07;46.99;45.98;47.89;;
67326;Laerm;58161;51.436;5.976;2022-08-04T01:00:21;46.99;45.99;48.07;;
67326;Laerm;58161;51.436;5.976;2022-08-04T01:00:36;48.38;46.37;51.15;;
67326;Laerm;58161;51.436;5.976;2022-08-04T01:01:11;47.69;46.13;50.66;;
67326;Laerm;58161;51.436;5.976;2022-08-04T01:02:30;47.00;45.99;51.26;;
67326;Laerm;58161;51.436;5.976;2022-08-04T01:02:51;46.99;46.16;48.93;;
67326;Laerm;58161;51.436;5.976;2022-08-04T01:03:08;46.98;46.02;49.01;;
67326;Laerm;58161;51.436;5.976;2022-08-04T01:03:55;46.98;45.91;48.03;;
67326;Laerm;58161;51.436;5.976;2022-08-04T01:04:09;47.00;46.15;48.28;;
67326;Laerm;58161;51.436;5.976;2022-08-04T01:04:44;46.99;45.87;50.61;;
67326;Laerm;58161;51.436;5.976;2022-08-04T01:06:11;46.99;46.01;49.95;;
67326;Laerm;58161;51.436;5.976;2022-08-04T01:07:45;46.95;45.99;48.09;;
67326;Laerm;58161;51.436;5.976;2022-08-04T01:08:36;46.98;46.06;47.98;;
67326;Laerm;58161;51.436;5.976;2022-08-04T01:09:06;46.98;45.91;48.08;;
67326;Laerm;58161;51.436;5.976;2022-08-04T01:09:25;46.99;46.01;49.54;;
67326;Laerm;58161;51.436;5.976;2022-08-04T01:10:08;47.00;46.05;48.09;;
67326;Laerm;58161;51.436;5.976;2022-08-04T01:11:17;47.02;46.17;48.04;;
67326;Laerm;58161;51.436;5.976;2022-08-04T01:12:25;46.99;45.90;47.95;;
67326;Laerm;58161;51.436;5.976;2022-08-04T01:13:20;47.04;45.53;52.39;;
67326;Laerm;58161;51.436;5.976;2022-08-04T01:13:52;46.97;46.11;49.89;;
67326;Laerm;58161;51.436;5.976;2022-08-04T01:14:34;46.97;46.05;48.11;;
67326;Laerm;58161;51.436;5.976;2022-08-04T01:15:05;46.99;46.18;48.16;;
67326;Laerm;58161;51.436;5.976;2022-08-04T01:15:17;46.98;45.96;47.87;;
67326;Laerm;58161;51.436;5.976;2022-08-04T01:15:48;46.98;45.97;47.93;;
67326;Laerm;58161;51.436;5.976;2022-08-04T01:16:03;46.96;46.01;47.84;;
67326;Laerm;58161;51.436;5.976;2022-08-04T01:16:15;47.03;46.13;47.92;;
67326;Laerm;58161;51.436;5.976;2022-08-04T01:16:26;46.98;46.09;47.99;;
67326;Laerm;58161;51.436;5.976;2022-08-04T01:16:40;47.03;45.96;51.61;;
67326;Laerm;58161;51.436;5.976;2022-08-04T01:16:56;46.98;45.96;49.29;;
67326;Laerm;58161;51.436;5.976;2022-08-04T01:18:06;46.99;45.87;50.48;;
67326;Laerm;58161;51.436;5.976;2022-08-04T01:18:32;46.97;45.79;48.69;;
67326;Laerm;58161;51.436;5.976;2022-08-04T01:19:18;47.02;45.75;51.14;;
67326;Laerm;58161;51.436;5.976;2022-08-04T01:19:52;47.01;46.09;52.84;;
67326;Laerm;58161;51.436;5.976;2022-08-04T01:20:05;46.98;45.96;49.81;;
67326;Laerm;58161;51.436;5.976;2022-08-04T01:20:19;47.00;46.00;50.58;;
67326;Laerm;58161;51.436;5.976;2022-08-04T01:22:28;47.04;46.14;53.06;;
67326;Laerm;58161;51.436;5.976;2022-08-04T01:23:41;46.99;46.06;49.01;;
67326;Laerm;58161;51.436;5.976;2022-08-04T01:24:42;46.97;46.00;47.79;;
67326;Laerm;58161;51.436;5.976;2022-08-04T01:25:50;47.00;46.05;48.16;;
67326;Laerm;58161;51.436;5.976;2022-08-04T01:27:09;47.04;45.93;48.46;;
67326;Laerm;58161;51.436;5.976;2022-08-04T01:27:39;47.00;46.25;47.77;;
67326;Laerm;58161;51.436;5.976;2022-08-04T01:29:03;46.99;45.89;49.17;;
67326;Laerm;58161;51.436;5.976;2022-08-04T01:29:14;47.00;45.99;47.78;;
67326;Laerm;58161;51.436;5.976;2022-08-04T01:29:29;47.00;45.89;47.85;;
67326;Laerm;58161;51.436;5.976;2022-08-04T01:29:42;46.99;45.92;48.00;;
67326;Laerm;58161;51.436;5.976;2022-08-04T01:29:55;46.99;45.97;49.39;;
67326;Laerm;58161;51.436;5.976;2022-08-04T01:30:07;47.00;46.07;48.03;;
67326;Laerm;58161;51.436;5.976;2022-08-04T01:30:18;46.97;46.23;47.67;;
67326;Laerm;58161;51.436;5.976;2022-08-04T01:30:28;47.02;46.06;48.00;;
67326;Laerm;58161;51.436;5.976;2022-08-04T01:30:41;46.98;46.14;48.27;;
67326;Laerm;58161;51.436;5.976;2022-08-04T01:30:53;46.97;46.12;47.79;;
67326;Laerm;58161;51.436;5.976;2022-08-04T01:32:08;47.03;46.09;47.92;;
67326;Laerm;58161;51.436;5.976;2022-08-04T01:32:26;47.00;45.83;48.16;;
67326;Laerm;58161;51.436;5.976;2022-08-04T01:32:43;47.00;45.96;49.40;;
67326;Laerm;58161;51.436;5.976;2022-08-04T01:33:01;46.98;46.10;47.96;;
67326;Laerm;58161;51.436;5.976;2022-08-04T01:33:13;47.03;46.01;48.04;;
67326;Laerm;58161;51.436;5.976;2022-08-04T01:33:23;47.00;46.14;47.90;;
67326;Laerm;58161;51.436;5.976;2022-08-04T01:33:38;47.00;46.14;48.38;;
67326;Laerm;58161;51.436;5.976;2022-08-04T01:33:50;46.99;45.98;48.17;;
67326;Laerm;58161;51.436;5.976;2022-08-04T01:34:02;46.99;45.80;48.02;;
67326;Laerm;58161;51.436;5.976;2022-08-04T01:34:15;47.03;46.01;48.03;;
67326;Laerm;58161;51.436;5.976;2022-08-04T01:34:27;47.02;46.20;48.87;;
67326;Laerm;58161;51.436;5.976;2022-08-04T01:34:50;47.00;46.07;48.86;;
67326;Laerm;58161;51.436;5.976;2022-08-04T01:35:03;47.03;46.09;50.97;;
67326;Laerm;58161;51.436;5.976;2022-08-04T01:35:27;46.99;46.13;50.15;;
67326;Laerm;58161;51.436;5.976;2022-08-04T01:35:43;47.00;45.93;48.75;;
67326;Laerm;58161;51.436;5.976;2022-08-04T01:35:56;47.01;46.03;48.14;;
67326;Laerm;58161;51.436;5.976;2022-08-04T01:36:06;47.01;45.78;49.13;;
67326;Laerm;58161;51.436;5.976;2022-08-04T01:36:18;47.03;45.98;50.93;;
67326;Laerm;58161;51.436;5.976;2022-08-04T01:36:33;47.01;45.87;49.48;;
67326;Laerm;58161;51.436;5.976;2022-08-04T01:36:45;46.98;46.13;47.91;;
67326;Laerm;58161;51.436;5.976;2022-08-04T01:37:02;46.97;45.76;49.92;;
67326;Laerm;58161;51.436;5.976;2022-08-04T01:37:20;46.96;46.08;47.84;;
67326;Laerm;58161;51.436;5.976;2022-08-04T01:37:40;47.03;46.02;48.44;;
67326;Laerm;58161;51.436;5.976;2022-08-04T01:38:12;46.99;45.89;49.02;;
67326;Laerm;58161;51.436;5.976;2022-08-04T01:38:28;47.02;46.17;50.15;;
67326;Laerm;58161;51.436;5.976;2022-08-04T01:38:39;46.99;45.99;49.09;;
67326;Laerm;58161;51.436;5.976;2022-08-04T01:38:51;46.97;46.13;49.02;;
67326;Laerm;58161;51.436;5.976;2022-08-04T01:39:02;46.98;46.09;47.84;;
67326;Laerm;58161;51.436;5.976;2022-08-04T01:39:37;47.01;46.02;47.96;;
67326;Laerm;58161;51.436;5.976;2022-08-04T01:39:59;47.01;46.16;48.00;;
67326;Laerm;58161;51.436;5.976;2022-08-04T01:40:09;46.99;46.05;49.72;;
67326;Laerm;58161;51.436;5.976;2022-08-04T01:40:22;47.04;46.08;49.88;;
67326;Laerm;58161;51.436;5.976;2022-08-04T01:40:36;46.98;46.03;48.69;;
67326;Laerm;58161;51.436;5.976;2022-08-04T01:40:47;47.03;45.83;49.69;;
67326;Laerm;58161;51.436;5.976;2022-08-04T01:41:07;47.00;46.06;48.02;;
67326;Laerm;58161;51.436;5.976;2022-08-04T01:41:18;46.99;46.00;48.90;;
67326;Laerm;58161;51.436;5.976;2022-08-04T01:41:29;46.99;46.13;49.30;;
67326;Laerm;58161;51.436;5.976;2022-08-04T01:41:40;47.03;45.99;49.18;;
67326;Laerm;58161;51.436;5.976;2022-08-04T01:41:53;46.99;46.18;48.01;;
67326;Laerm;58161;51.436;5.976;2022-08-04T01:42:04;47.00;46.22;47.89;;
67326;Laerm;58161;51.436;5.976;2022-08-04T01:42:16;46.99;45.95;47.84;;
67326;Laerm;58161;51.436;5.976;2022-08-04T01:42:26;46.98;45.93;47.81;;
67326;Laerm;58161;51.436;5.976;2022-08-04T01:42:37;46.95;46.11;47.67;;
67326;Laerm;58161;51.436;5.976;2022-08-04T01:42:51;47.00;46.07;48.88;;
67326;Laerm;58161;51.436;5.976;2022-08-04T01:43:02;47.02;45.98;47.70;;
67326;Laerm;58161;51.436;5.976;2022-08-04T01:43:13;47.01;46.12;48.57;;
67326;Laerm;58161;51.436;5.976;2022-08-04T01:43:26;47.00;46.14;47.80;;
67326;Laerm;58161;51.436;5.976;2022-08-04T01:43:40;46.98;46.09;47.96;;
67326;Laerm;58161;51.436;5.976;2022-08-04T01:43:51;46.98;45.91;50.13;;
67326;Laerm;58161;51.436;5.976;2022-08-04T01:44:03;46.98;46.10;47.71;;
67326;Laerm;58161;51.436;5.976;2022-08-04T01:44:15;46.99;45.92;48.23;;
67326;Laerm;58161;51.436;5.976;2022-08-04T01:44:26;46.96;45.97;48.52;;
67326;Laerm;58161;51.436;5.976;2022-08-04T01:44:38;47.00;46.15;47.95;;
67326;Laerm;58161;51.436;5.976;2022-08-04T01:44:48;47.01;46.23;47.80;;
67326;Laerm;58161;51.436;5.976;2022-08-04T01:45:03;47.02;46.32;47.86;;
67326;Laerm;58161;51.436;5.976;2022-08-04T01:45:14;47.00;46.09;47.82;;
67326;Laerm;58161;51.436;5.976;2022-08-04T01:45:24;47.02;46.38;47.78;;
67326;Laerm;58161;51.436;5.976;2022-08-04T01:45:36;47.00;46.05;48.07;;
67326;Laerm;58161;51.436;5.976;2022-08-04T01:45:50;47.01;46.11;49.09;;
67326;Laerm;58161;51.436;5.976;2022-08-04T01:46:05;47.00;45.79;47.93;;
67326;Laerm;58161;51.436;5.976;2022-08-04T01:46:19;47.02;46.18;47.85;;
67326;Laerm;58161;51.436;5.976;2022-08-04T01:46:30;46.99;45.99;47.90;;
67326;Laerm;58161;51.436;5.976;2022-08-04T01:46:42;46.99;46.09;47.91;;
67326;Laerm;58161;51.436;5.976;2022-08-04T01:46:54;46.99;46.04;47.85;;
67326;Laerm;58161;51.436;5.976;2022-08-04T01:47:04;47.00;46.16;47.76;;
67326;Laerm;58161;51.436;5.976;2022-08-04T01:47:16;47.01;46.01;47.95;;
67326;Laerm;58161;51.436;5.976;2022-08-04T01:47:29;47.03;46.15;48.70;;
67326;Laerm;58161;51.436;5.976;2022-08-04T01:47:50;47.01;46.00;47.94;;
67326;Laerm;58161;51.436;5.976;2022-08-04T01:48:00;46.96;46.02;47.80;;
67326;Laerm;58161;51.436;5.976;2022-08-04T01:48:12;47.01;46.00;48.75;;
67326;Laerm;58161;51.436;5.976;2022-08-04T01:48:23;46.96;45.95;48.66;;
67326;Laerm;58161;51.436;5.976;2022-08-04T01:48:34;47.29;46.03;48.99;;
67326;Laerm;58161;51.436;5.976;2022-08-04T01:48:47;47.89;46.42;49.24;;
67326;Laerm;58161;51.436;5.976;2022-08-04T01:49:02;48.10;46.31;49.99;;
67326;Laerm;58161;51.436;5.976;2022-08-04T01:49:15;47.50;46.06;49.18;;
67326;Laerm;58161;51.436;5.976;2022-08-04T01:49:29;46.97;45.78;47.75;;
67326;Laerm;58161;51.436;5.976;2022-08-04T01:49:40;46.98;46.06;47.83;;
67326;Laerm;58161;51.436;5.976;2022-08-04T01:49:51;46.98;46.25;47.88;;
67326;Laerm;58161;51.436;5.976;2022-08-04T01:50:05;46.98;45.94;47.83;;
67326;Laerm;58161;51.436;5.976;2022-08-04T01:50:16;47.00;45.98;48.10;;
67326;Laerm;58161;51.436;5.976;2022-08-04T01:50:26;46.95;46.15;47.81;;
67326;Laerm;58161;51.436;5.976;2022-08-04T01:50:40;46.97;46.04;47.77;;
67326;Laerm;58161;51.436;5.976;2022-08-04T01:50:53;46.99;45.94;49.15;;
67326;Laerm;58161;51.436;5.976;2022-08-04T01:51:07;46.99;46.11;48.06;;
67326;Laerm;58161;51.436;5.976;2022-08-04T01:51:17;46.99;46.08;48.01;;